Time;durP1;ratioP1;P1;durP2;ratioP2;P2;SDS_P1;SDS_P2;PMS_P1;PMS_P2;Temp;Humidity;BMP_temperature;BMP_pressure;BME280_temperature;BME280_humidity;BME280_pressure;Samples;Min_cycle;Max_cycle;Signal;HPM_P1;HPM_P2
2022/02/08 00:00:14;;;;;;;8.43;3.25;;;;;;;1.43;69.75;98773.19;5060420;28;20040;-69
2022/02/08 00:02:44;;;;;;;7.63;2.10;;;;;;;1.43;69.75;98794.00;5061142;28;20127;-70
2022/02/08 00:05:12;;;;;;;16.70;4.00;;;;;;;1.46;69.66;98782.72;5060095;28;20071;-70
2022/02/08 00:07:38;;;;;;;34.55;7.30;;;;;;;1.44;69.29;98782.13;5061294;28;20025;-69
2022/02/08 00:10:04;;;;;;;17.25;3.67;;;;;;;1.45;69.57;98778.38;5061979;28;20117;-70
2022/02/08 00:12:30;;;;;;;16.42;3.42;;;;;;;1.48;69.62;98783.34;5062294;28;20031;-70
2022/02/08 00:14:55;;;;;;;8.95;2.10;;;;;;;1.50;69.88;98789.34;5060713;28;20033;-70
2022/02/08 00:17:21;;;;;;;15.85;3.17;;;;;;;1.47;69.97;98789.78;5063485;28;20459;-70
2022/02/08 00:19:46;;;;;;;11.57;2.33;;;;;;;1.46;69.40;98791.66;5062985;28;20037;-70
2022/02/08 00:22:12;;;;;;;15.35;2.90;;;;;;;1.48;69.56;98792.25;5062550;28;20039;-70
2022/02/08 00:24:37;;;;;;;7.93;2.20;;;;;;;1.49;69.48;98793.91;5059354;28;20090;-70
2022/02/08 00:27:04;;;;;;;9.32;2.08;;;;;;;1.49;69.80;98798.50;5062874;28;20028;-70
2022/02/08 00:29:29;;;;;;;6.95;1.70;;;;;;;1.52;69.28;98805.31;5062527;28;20044;-69
2022/02/08 00:31:55;;;;;;;14.45;2.30;;;;;;;1.53;69.72;98817.78;5062540;28;20378;-69
2022/02/08 00:34:20;;;;;;;8.68;1.80;;;;;;;1.54;69.00;98811.31;5061066;28;20025;-70
2022/02/08 00:36:46;;;;;;;7.30;2.00;;;;;;;1.54;69.15;98822.97;5062535;28;20067;-70
2022/02/08 00:39:12;;;;;;;8.15;1.80;;;;;;;1.56;69.61;98826.28;5062278;28;20783;-70
2022/02/08 00:41:38;;;;;;;11.27;1.83;;;;;;;1.54;69.32;98822.13;5061854;28;20029;-70
2022/02/08 00:44:11;;;;;;;10.55;2.17;;;;;;;1.55;69.19;98831.88;5061094;28;20876;-70
2022/02/08 00:46:49;;;;;;;9.35;2.08;;;;;;;1.54;69.73;98831.09;5061831;28;20035;-70
2022/02/08 00:49:15;;;;;;;8.60;2.60;;;;;;;1.56;69.28;98828.97;5062748;28;20032;-70
2022/02/08 00:54:07;;;;;;;8.82;2.15;;;;;;;1.56;69.61;98837.09;5060764;28;20039;-70
2022/02/08 00:56:32;;;;;;;10.68;2.13;;;;;;;1.54;69.01;98841.06;5062191;28;20028;-70
2022/02/08 00:58:58;;;;;;;8.38;1.98;;;;;;;1.55;69.83;98846.25;5061954;28;20393;-70
2022/02/08 01:01:23;;;;;;;9.13;1.88;;;;;;;1.57;69.46;98848.72;5062343;28;20116;-69
2022/02/08 01:03:48;;;;;;;7.32;1.70;;;;;;;1.58;69.22;98853.06;5060783;28;20451;-70
2022/02/08 01:06:16;;;;;;;8.02;2.05;;;;;;;1.54;69.54;98847.31;5062319;28;20032;-70
2022/02/08 01:08:41;;;;;;;7.90;2.10;;;;;;;1.54;69.59;98854.56;5061590;28;20036;-70
2022/02/08 01:11:10;;;;;;;13.50;3.00;;;;;;;1.53;69.75;98852.91;5061332;28;20595;-70
2022/02/08 01:13:38;;;;;;;11.15;2.25;;;;;;;1.51;69.81;98855.88;5059034;28;20064;-71
2022/02/08 01:16:03;;;;;;;9.32;1.90;;;;;;;1.49;69.53;98853.38;5061220;28;20119;-70
2022/02/08 01:18:31;;;;;;;10.63;3.00;;;;;;;1.52;69.32;98860.22;5061862;28;20028;-70
2022/02/08 01:20:57;;;;;;;10.43;2.75;;;;;;;1.54;69.12;98863.53;5061790;28;20033;-70
2022/02/08 01:23:23;;;;;;;13.43;3.58;;;;;;;1.53;69.66;98869.13;5059359;28;20024;-71
2022/02/08 01:25:56;;;;;;;14.05;3.65;;;;;;;1.51;69.53;98863.97;5061589;28;20511;-70
2022/02/08 01:31:21;;;;;;;12.05;2.53;;;;;;;1.49;69.46;98858.78;5041461;28;20076;-70
2022/02/08 01:37:24;;;;;;;11.02;1.70;;;;;;;1.51;69.02;98866.69;5062757;28;20033;-70
2022/02/08 01:40:13;;;;;;;9.98;1.70;;;;;;;1.51;69.88;98871.25;5058728;28;20538;-70
2022/02/08 01:42:24;;;;;;;9.75;2.00;;;;;;;1.54;69.59;98876.19;5058686;28;20044;-71
2022/02/08 01:47:50;;;;;;;11.70;2.15;;;;;;;1.59;69.54;98882.59;5065225;28;20177;-70
2022/02/08 01:50:17;;;;;;;8.65;2.22;;;;;;;1.61;69.34;98883.19;5065449;28;20033;-70
2022/02/08 01:52:43;;;;;;;15.98;6.57;;;;;;;1.60;69.44;98883.41;5064155;28;20048;-70
2022/02/08 01:55:11;;;;;;;9.65;2.15;;;;;;;1.59;69.01;98889.88;5062870;28;20107;-71
2022/02/08 01:57:38;;;;;;;6.53;2.28;;;;;;;1.59;69.03;98892.56;5064818;28;20409;-70
2022/02/08 02:00:07;;;;;;;9.13;2.05;;;;;;;1.59;69.80;98901.53;5064462;28;20032;-70
2022/02/08 02:02:32;;;;;;;8.13;2.05;;;;;;;1.60;69.13;98903.19;5064815;28;20024;-70
2022/02/08 02:04:58;;;;;;;7.25;1.80;;;;;;;1.60;69.21;98908.59;5063031;28;20029;-70
2022/02/08 02:07:23;;;;;;;6.60;1.63;;;;;;;1.63;69.54;98918.09;5063242;28;20024;-70
2022/02/08 02:09:49;;;;;;;8.25;1.98;;;;;;;1.64;69.10;98909.75;5064691;28;20020;-70
2022/02/08 02:12:14;;;;;;;9.45;1.67;;;;;;;1.64;69.02;98925.16;5064431;28;20098;-70
2022/02/08 02:14:40;;;;;;;7.70;2.08;;;;;;;1.66;69.14;98919.53;5062965;28;20036;-71
2022/02/08 02:17:09;;;;;;;8.35;1.83;;;;;;;1.64;68.67;98927.88;5064161;28;20028;-70
2022/02/08 02:19:36;;;;;;;7.72;1.80;;;;;;;1.66;69.37;98933.88;5064636;28;20029;-70
2022/02/08 02:22:03;;;;;;;9.93;2.10;;;;;;;1.67;69.13;98930.13;5064277;28;20016;-70
2022/02/08 02:24:29;;;;;;;8.10;2.28;;;;;;;1.66;69.00;98923.06;5062790;28;20027;-70
2022/02/08 02:26:57;;;;;;;8.30;2.20;;;;;;;1.68;68.42;98936.34;5064444;28;20028;-70
2022/02/08 02:29:24;;;;;;;10.23;2.28;;;;;;;1.66;68.94;98941.16;5064394;28;20052;-70
2022/02/08 02:31:50;;;;;;;9.52;2.00;;;;;;;1.67;69.39;98940.09;5064306;28;20103;-70
2022/02/08 02:34:20;;;;;;;10.43;2.20;;;;;;;1.67;68.77;98954.47;5062778;28;20103;-70
2022/02/08 02:36:46;;;;;;;5.97;1.40;;;;;;;1.65;68.73;98943.03;5064333;28;20120;-70
2022/02/08 02:39:13;;;;;;;20.85;4.57;;;;;;;1.67;69.37;98950.91;5064231;28;20036;-70
2022/02/08 02:41:41;;;;;;;25.58;7.15;;;;;;;1.67;69.25;98950.91;5063242;28;20058;-70
2022/02/08 02:44:09;;;;;;;8.10;1.70;;;;;;;1.66;68.58;98950.09;5060732;28;20488;-70
2022/02/08 02:46:35;;;;;;;11.48;2.60;;;;;;;1.66;68.59;98965.47;5063280;28;20428;-70
2022/02/08 02:49:00;;;;;;;11.18;2.08;;;;;;;1.62;68.82;98963.25;5063397;28;20024;-70
2022/02/08 02:51:26;;;;;;;7.82;1.80;;;;;;;1.63;68.97;98964.06;5061918;28;20031;-70
2022/02/08 02:53:52;;;;;;;7.50;2.08;;;;;;;1.62;68.93;98973.22;5062443;28;20382;-70
2022/02/08 02:56:19;;;;;;;11.38;2.95;;;;;;;1.60;69.06;98969.94;5063703;28;20029;-70
2022/02/08 02:58:44;;;;;;;10.57;1.83;;;;;;;1.61;69.23;98985.09;5064054;28;20028;-71
2022/02/08 03:01:33;;;;;;;10.45;2.50;;;;;;;1.62;68.28;98984.88;5061791;28;20043;-70
2022/02/08 03:17:59;;;;;;;5.53;1.63;;;;;;;1.60;68.88;99019.44;5063671;28;20036;-70
2022/02/08 03:20:10;;;;;;;7.38;2.00;;;;;;;1.60;68.70;99027.53;5062500;28;20501;-71
2022/02/08 03:22:36;;;;;;;7.22;1.38;;;;;;;1.60;68.85;99021.28;5063216;28;20039;-71
2022/02/08 03:25:03;;;;;;;8.15;1.80;;;;;;;1.60;68.61;99027.53;5061309;28;20029;-71
2022/02/08 03:27:29;;;;;;;14.23;2.40;;;;;;;1.58;68.31;99039.63;5063109;28;20041;-71
2022/02/08 03:29:54;;;;;;;10.35;1.70;;;;;;;1.59;68.49;99047.53;5062868;28;20043;-71
2022/02/08 03:32:22;;;;;;;10.43;1.75;;;;;;;1.60;68.54;99045.63;5063034;28;20020;-71
2022/02/08 03:34:47;;;;;;;7.22;1.60;;;;;;;1.60;68.04;99054.59;5061773;28;20060;-71
2022/02/08 03:37:13;;;;;;;7.53;2.22;;;;;;;1.62;67.95;99060.59;5059835;28;20476;-71
2022/02/08 03:39:44;;;;;;;6.82;2.00;;;;;;;1.61;68.56;99067.06;5061963;28;20029;-71
2022/02/08 03:42:18;;;;;;;7.78;2.60;;;;;;;1.63;68.57;99064.13;5061763;28;20028;-71
2022/02/08 03:44:49;;;;;;;11.75;2.45;;;;;;;1.68;68.23;99069.69;5061242;28;20044;-71
2022/02/08 03:47:16;;;;;;;12.52;3.17;;;;;;;1.67;68.60;99083.41;5062398;28;20037;-72
2022/02/08 03:49:41;;;;;;;11.82;3.20;;;;;;;1.63;68.42;99080.34;5062126;28;20028;-71
2022/02/08 03:52:07;;;;;;;29.83;9.18;;;;;;;1.62;68.43;99082.22;5062240;28;20044;-71
2022/02/08 03:54:33;;;;;;;13.48;3.88;;;;;;;1.60;68.41;99080.78;5060652;28;20508;-71
2022/02/08 03:57:00;;;;;;;24.00;6.63;;;;;;;1.59;68.45;99085.38;5062098;28;20421;-72
2022/02/08 03:59:26;;;;;;;16.27;3.15;;;;;;;1.60;68.82;99094.31;5062460;28;20035;-71
2022/02/08 04:02:38;;;;;;;11.18;1.85;;;;;;;1.58;68.11;99096.41;5062600;28;20376;-71
2022/02/08 04:07:15;;;;;;;8.35;2.35;;;;;;;1.54;68.19;99120.34;5061330;28;20036;-72
2022/02/08 04:09:42;;;;;;;17.15;3.22;;;;;;;1.55;67.91;99111.19;5062511;28;20683;-71
2022/02/08 04:12:19;;;;;;;13.10;2.40;;;;;;;1.55;68.21;99118.47;5062316;28;20028;-71
2022/02/08 04:15:04;;;;;;;16.50;4.90;;;;;;;1.56;68.00;99112.84;5060400;28;20409;-71
2022/02/08 04:17:54;;;;;;;7.93;1.75;;;;;;;1.55;68.65;99122.00;5062238;28;20036;-71
2022/02/08 04:40:09;;;;;;;12.27;2.70;;;;;;;1.60;68.12;99141.09;5063852;28;20063;-71
2022/02/08 04:47:04;;;;;;;8.70;2.33;;;;;;;1.55;68.01;99142.78;5063347;28;20036;-71
2022/02/08 04:49:29;;;;;;;11.20;2.00;;;;;;;1.55;68.43;99149.03;5062562;28;20037;-71
2022/02/08 04:52:00;;;;;;;7.82;1.80;;;;;;;1.55;68.39;99149.03;5063359;28;20055;-71
2022/02/08 05:44:59;;;;;;;6.45;2.20;;;;;;;1.43;69.46;99202.16;5063013;28;20132;-71
2022/02/08 05:47:25;;;;;;;8.73;1.73;;;;;;;1.42;69.56;99197.78;5063909;28;20056;-70
2022/02/08 05:50:04;;;;;;;10.82;2.42;;;;;;;1.42;69.13;99197.78;5065262;28;20464;-71
2022/02/08 05:53:07;;;;;;;14.23;2.78;;;;;;;1.39;70.10;99193.66;5064899;28;20024;-71
2022/02/08 05:55:21;;;;;;;11.98;3.22;;;;;;;1.37;69.65;99200.31;5062489;28;20040;-70
2022/02/08 05:57:46;;;;;;;8.20;2.22;;;;;;;1.37;69.88;99201.16;5065670;28;20093;-71
2022/02/08 06:00:13;;;;;;;8.95;2.58;;;;;;;1.38;69.89;99205.53;5065455;28;20036;-71
2022/02/08 06:02:38;;;;;;;10.13;2.72;;;;;;;1.38;70.15;99200.13;5065502;28;20040;-70
2022/02/08 06:05:08;;;;;;;8.13;2.35;;;;;;;1.40;69.90;99216.09;5063827;28;20028;-71
2022/02/08 06:07:33;;;;;;;5.90;1.90;;;;;;;1.43;69.60;99219.19;5065860;28;20044;-70
2022/02/08 06:09:59;;;;;;;6.55;1.85;;;;;;;1.46;70.45;99221.47;5064172;28;20475;-70
2022/02/08 06:12:25;;;;;;;10.00;2.30;;;;;;;1.45;69.41;99222.50;5064249;28;20048;-70
2022/02/08 06:15:06;;;;;;;9.35;2.50;;;;;;;1.46;69.65;99229.56;5064052;28;20032;-71
2022/02/08 06:17:31;;;;;;;13.15;2.35;;;;;;;1.44;70.27;99231.66;5064796;28;20017;-70
2022/02/08 06:19:57;;;;;;;8.50;2.60;;;;;;;1.43;69.29;99234.59;5065671;28;20850;-71
2022/02/08 06:22:23;;;;;;;9.57;2.58;;;;;;;1.43;70.30;99235.41;5065588;28;20106;-69
2022/02/08 06:24:49;;;;;;;10.88;4.10;;;;;;;1.41;70.01;99237.53;5060626;28;20035;-69
2022/02/08 06:27:14;;;;;;;10.77;2.80;;;;;;;1.47;69.66;99244.75;5064265;28;20597;-69
2022/02/08 06:29:40;;;;;;;11.73;2.45;;;;;;;1.47;70.32;99244.75;5065547;28;20060;-69
2022/02/08 06:32:06;;;;;;;7.95;2.63;;;;;;;1.51;70.21;99242.44;5062148;28;20032;-69
2022/02/08 06:34:32;;;;;;;6.93;2.33;;;;;;;1.55;69.58;99249.09;5063032;28;20051;-69
2022/02/08 06:37:05;;;;;;;6.32;2.00;;;;;;;1.57;69.73;99252.41;5061677;28;20493;-69
2022/02/08 06:39:35;;;;;;;8.98;2.47;;;;;;;1.55;69.77;99250.94;5064723;28;20576;-69
2022/02/08 06:42:00;;;;;;;7.72;2.20;;;;;;;1.54;69.19;99255.53;5064700;28;20031;-69
2022/02/08 06:44:26;;;;;;;8.63;2.00;;;;;;;1.60;69.65;99256.53;5064310;28;20016;-68
2022/02/08 06:46:51;;;;;;;6.60;2.40;;;;;;;1.63;69.50;99258.81;5065547;28;20031;-69
2022/02/08 06:49:17;;;;;;;11.27;3.33;;;;;;;1.64;69.90;99263.97;5065531;28;20119;-69
2022/02/08 06:51:43;;;;;;;10.68;2.75;;;;;;;1.69;69.71;99251.69;5064418;28;20075;-69
2022/02/08 06:54:08;;;;;;;8.77;3.00;;;;;;;1.71;69.20;99249.59;5062648;28;20036;-70
2022/02/08 06:56:34;;;;;;;16.52;5.22;;;;;;;1.69;68.06;99249.81;5064337;28;20032;-69
2022/02/08 06:59:06;;;;;;;23.42;5.70;;;;;;;1.69;68.18;99248.97;5064077;28;20028;-69
2022/02/08 07:01:33;;;;;;;25.90;6.28;;;;;;;1.69;67.50;99260.63;5063282;28;20469;-69
2022/02/08 07:04:01;;;;;;;27.08;7.78;;;;;;;1.73;66.98;99264.56;5063246;28;20100;-69
2022/02/08 07:06:26;;;;;;;32.85;7.22;;;;;;;1.81;66.95;99268.06;5065096;28;20028;-69
2022/02/08 07:08:52;;;;;;;27.95;6.75;;;;;;;1.84;65.33;99254.06;5061848;28;20304;-68
2022/02/08 07:11:17;;;;;;;23.20;6.63;;;;;;;1.90;66.50;99258.59;5064980;28;20032;-69
2022/02/08 07:13:45;;;;;;;27.27;6.70;;;;;;;1.94;65.58;99265.25;5061787;28;20198;-70
2022/02/08 07:16:12;;;;;;;23.02;5.78;;;;;;;1.95;66.09;99264.19;5063312;28;20402;-69
2022/02/08 07:18:37;;;;;;;23.52;6.88;;;;;;;2.02;65.72;99270.38;5063815;28;20020;-70
2022/02/08 07:21:03;;;;;;;13.60;4.65;;;;;;;2.03;64.96;99273.94;5064416;28;20431;-70
2022/02/08 07:23:28;;;;;;;21.40;6.03;;;;;;;2.04;66.13;99267.44;5063322;28;20089;-70
2022/02/08 07:25:54;;;;;;;14.60;4.88;;;;;;;2.03;65.56;99274.75;5062947;28;20031;-70
2022/02/08 07:28:21;;;;;;;22.13;7.25;;;;;;;2.07;65.53;99281.38;5063897;28;20064;-70
2022/02/08 07:30:46;;;;;;;18.15;5.82;;;;;;;2.10;65.51;99287.41;5060159;28;20068;-71
2022/02/08 07:33:12;;;;;;;11.68;3.75;;;;;;;2.13;65.89;99279.66;5062305;28;20452;-71
2022/02/08 07:36:02;;;;;;;14.38;3.53;;;;;;;2.11;66.38;99280.94;5063715;28;20048;-70
2022/02/08 07:38:34;;;;;;;8.52;2.92;;;;;;;2.07;66.63;99286.78;5063391;28;20111;-70
2022/02/08 07:43:25;;;;;;;10.27;2.15;;;;;;;2.01;67.19;99293.06;5062106;28;20410;-70
2022/02/08 07:45:51;;;;;;;7.28;2.10;;;;;;;1.96;67.65;99298.31;5065813;28;20046;-70
2022/02/08 07:48:16;;;;;;;10.00;2.90;;;;;;;1.87;67.79;99294.22;5064062;28;20036;-71
2022/02/08 07:50:42;;;;;;;20.83;6.57;;;;;;;1.86;67.68;99281.72;5061049;28;20032;-71
2022/02/08 07:53:13;;;;;;;15.38;5.47;;;;;;;1.84;68.79;99294.66;5062240;28;20433;-69
2022/02/08 07:55:40;;;;;;;19.70;8.13;;;;;;;1.77;68.95;99279.31;5062589;28;20036;-68
2022/02/08 07:58:06;;;;;;;20.02;6.43;;;;;;;1.78;69.13;99277.41;5064184;28;20066;-69
2022/02/08 08:00:32;;;;;;;19.83;5.20;;;;;;;1.74;69.13;99277.03;5061504;28;20107;-69
2022/02/08 08:02:57;;;;;;;16.05;3.50;;;;;;;1.76;69.19;99274.94;5063791;28;20173;-70
2022/02/08 08:05:23;;;;;;;13.40;3.50;;;;;;;1.77;69.64;99273.06;5061705;28;20052;-74
2022/02/08 08:07:49;;;;;;;19.33;4.47;;;;;;;1.82;69.38;99272.41;5063549;28;20550;-74
2022/02/08 08:10:18;;;;;;;32.28;8.13;;;;;;;1.84;70.29;99275.72;5060878;28;20031;-74
2022/02/08 08:12:50;;;;;;;23.80;7.10;;;;;;;1.86;69.63;99277.16;5062923;28;20031;-72
2022/02/08 08:17:58;;;;;;;17.77;4.20;;;;;;;1.89;69.65;99284.84;5062877;28;20052;-72
2022/02/08 08:20:23;;;;;;;34.55;10.30;;;;;;;1.89;70.14;99284.84;5063470;28;20424;-72
2022/02/08 08:22:49;;;;;;;26.65;8.55;;;;;;;1.95;70.04;99283.13;5062744;28;20024;-72
2022/02/08 08:25:15;;;;;;;23.00;8.13;;;;;;;2.01;70.44;99282.25;5060142;28;20036;-72
2022/02/08 08:27:40;;;;;;;16.63;5.65;;;;;;;2.05;70.36;99286.19;5062036;28;20029;-73
2022/02/08 08:30:09;;;;;;;17.88;6.43;;;;;;;2.13;70.39;99281.56;5061871;28;20121;-72
2022/02/08 08:32:35;;;;;;;19.50;7.28;;;;;;;2.19;70.66;99269.84;5061916;28;20021;-73
2022/02/08 08:35:01;;;;;;;24.58;9.05;;;;;;;2.25;70.54;99270.84;5060432;28;20043;-73
2022/02/08 08:37:26;;;;;;;20.67;6.85;;;;;;;2.30;70.25;99271.00;5066082;28;20739;-74
2022/02/08 08:39:53;;;;;;;18.90;6.10;;;;;;;2.35;70.78;99258.44;5065483;28;20040;-71
2022/02/08 08:42:34;;;;;;;17.55;5.15;;;;;;;2.46;71.10;99261.47;5067203;28;20443;-71
2022/02/08 08:50:47;;;;;;;13.45;4.68;;;;;;;2.62;70.68;99252.78;5065861;28;20056;-72
2022/02/08 08:53:13;;;;;;;19.13;4.45;;;;;;;2.72;70.70;99251.41;5063845;28;20121;-72
2022/02/08 08:55:38;;;;;;;22.20;6.13;;;;;;;2.73;69.83;99243.06;5059882;28;20037;-72
2022/02/08 08:58:03;;;;;;;18.95;5.93;;;;;;;2.78;69.46;99236.97;5065225;28;20047;-72
2022/02/08 09:00:29;;;;;;;21.75;5.75;;;;;;;2.85;69.89;99231.50;5065359;28;20121;-73
2022/02/08 09:02:54;;;;;;;20.48;7.07;;;;;;;2.92;69.63;99233.06;5063199;28;20403;-72
2022/02/08 09:05:21;;;;;;;17.65;5.05;;;;;;;2.92;69.98;99232.22;5064177;28;20093;-72
2022/02/08 09:07:46;;;;;;;15.52;4.68;;;;;;;2.92;70.12;99237.63;5063791;28;20074;-74
2022/02/08 09:10:17;;;;;;;15.60;5.45;;;;;;;2.85;69.23;99235.03;5067109;28;20032;-74
2022/02/08 09:15:43;;;;;;;23.40;7.40;;;;;;;2.65;69.58;99238.75;5064331;28;20414;-73
2022/02/08 09:28:22;;;;;;;24.30;8.82;;;;;;;2.53;69.53;99251.41;5064915;28;20036;-74
2022/02/08 09:30:55;;;;;;;26.88;8.65;;;;;;;2.62;69.56;99238.41;5065562;28;20165;-74
2022/02/08 09:33:21;;;;;;;29.85;10.65;;;;;;;2.72;69.72;99244.13;5063380;28;20043;-72
2022/02/08 09:35:47;;;;;;;29.17;9.90;;;;;;;2.83;69.34;99242.53;5065315;28;20044;-73
2022/02/08 09:38:13;;;;;;;38.92;13.35;;;;;;;3.00;69.96;99241.94;5064439;28;20028;-72
2022/02/08 09:40:38;;;;;;;27.70;10.27;;;;;;;3.15;69.23;99225.28;5064602;28;20040;-73
2022/02/08 09:43:05;;;;;;;26.80;9.50;;;;;;;3.24;68.19;99230.16;5058863;28;20032;-73
2022/02/08 09:45:33;;;;;;;22.75;7.97;;;;;;;3.32;67.04;99233.59;5062642;28;20032;-73
2022/02/08 09:48:09;;;;;;;30.38;8.45;;;;;;;3.31;67.21;99227.34;5059484;28;20039;-73
2022/02/08 09:50:36;;;;;;;37.75;11.25;;;;;;;3.31;65.73;99224.63;5062384;28;20035;-73
2022/02/08 09:53:05;;;;;;;30.13;9.80;;;;;;;3.36;66.80;99230.19;5063749;28;20035;-73
2022/02/08 09:55:38;;;;;;;27.90;8.57;;;;;;;3.45;65.60;99227.16;5062055;28;20041;-73
2022/02/08 09:58:06;;;;;;;17.40;6.13;;;;;;;3.51;64.09;99218.13;5060190;28;20029;-73
2022/02/08 10:00:34;;;;;;;21.13;7.60;;;;;;;3.58;63.94;99206.09;5063677;28;20032;-73
2022/02/08 10:03:08;;;;;;;12.73;5.13;;;;;;;3.60;61.63;99195.03;5063075;28;20036;-75
2022/02/08 10:05:53;;;;;;;17.67;6.60;;;;;;;3.65;62.92;99189.75;5062411;28;20489;-73
2022/02/08 10:08:20;;;;;;;22.20;6.78;;;;;;;3.75;62.48;99196.47;5063265;28;20402;-74
2022/02/08 10:10:46;;;;;;;21.60;7.30;;;;;;;3.88;62.49;99180.78;5063514;28;20036;-73
2022/02/08 10:24:10;;;;;;;18.20;6.53;;;;;;;4.21;59.50;99156.84;5062243;28;20524;-72
2022/02/08 10:40:07;;;;;;;17.63;5.22;;;;;;;4.92;58.60;99150.44;5062567;28;20047;-76
2022/02/08 10:42:34;;;;;;;17.50;5.47;;;;;;;4.98;57.97;99145.91;5063538;28;20025;-77
2022/02/08 10:45:01;;;;;;;16.02;5.38;;;;;;;5.09;58.43;99145.03;5063346;28;20041;-81
2022/02/08 10:47:33;;;;;;;15.98;4.72;;;;;;;5.21;57.22;99134.94;5063437;28;20036;-75
2022/02/08 10:50:00;;;;;;;10.55;3.67;;;;;;;5.25;56.01;99129.84;5062540;28;20033;-76
2022/02/08 10:52:28;;;;;;;10.65;4.63;;;;;;;5.32;56.74;99127.78;5064913;28;20508;-76
2022/02/08 10:54:57;;;;;;;11.85;4.53;;;;;;;5.36;56.16;99122.66;5062301;28;20129;-76
2022/02/08 10:57:30;;;;;;;11.57;4.15;;;;;;;5.36;56.75;99125.38;5061439;28;20201;-78
2022/02/08 11:00:01;;;;;;;16.23;5.13;;;;;;;5.42;56.03;99126.31;5061101;28;20021;-77
2022/02/08 11:02:46;;;;;;;14.93;4.47;;;;;;;5.45;57.12;99115.75;5063911;28;20035;-76
2022/02/08 11:05:35;;;;;;;14.52;4.40;;;;;;;5.45;56.26;99112.22;5058974;28;20032;-78
2022/02/08 11:16:04;;;;;;;12.68;4.78;;;;;;;5.46;56.87;99098.38;5063635;28;20037;-74
2022/02/08 11:21:21;;;;;;;11.75;4.10;;;;;;;5.40;56.64;99088.47;5061135;28;20050;-74
2022/02/08 11:26:45;;;;;;;12.63;4.88;;;;;;;5.16;55.35;99087.78;5063142;28;20963;-77
2022/02/08 11:29:20;;;;;;;8.50;3.50;;;;;;;5.02;55.86;99101.72;5047215;28;20047;-74
2022/02/08 11:31:59;;;;;;;11.43;4.57;;;;;;;4.88;56.10;99101.19;5062185;28;20036;-73
2022/02/08 11:54:28;;;;;;;15.52;5.05;;;;;;;5.22;55.83;99092.25;5058110;28;20039;-75
2022/02/08 12:02:42;;;;;;;16.42;5.93;;;;;;;5.44;55.21;99077.94;5061563;28;20068;-75
2022/02/08 12:07:36;;;;;;;15.80;6.55;;;;;;;5.72;54.98;99076.19;5061381;28;20081;-72
2022/02/08 12:10:28;;;;;;;11.38;4.70;;;;;;;5.91;54.79;99063.94;5060911;28;20035;-73
2022/02/08 14:20:46;;;;;;;18.63;8.00;;;;;;;3.70;65.05;98961.94;5064634;28;20063;-72
2022/02/08 14:23:26;;;;;;;22.83;8.50;;;;;;;3.69;65.49;98963.00;5061807;28;20039;-71
2022/02/08 15:05:47;;;;;;;27.65;13.70;;;;;;;3.43;70.31;98983.34;5061898;28;20089;-72
2022/02/08 15:08:31;;;;;;;18.17;7.80;;;;;;;3.41;70.20;98971.91;5058799;28;20040;-73
2022/02/08 15:11:04;;;;;;;19.65;8.15;;;;;;;3.39;70.75;98972.13;5063252;28;20036;-73
2022/02/08 15:13:30;;;;;;;21.23;9.80;;;;;;;3.37;71.04;98966.13;5061409;28;20825;-74
2022/02/08 15:18:31;;;;;;;21.05;8.18;;;;;;;3.39;70.56;98966.72;5063264;28;20078;-72
2022/02/08 15:20:58;;;;;;;19.52;8.55;;;;;;;3.39;71.30;98976.75;5063648;28;20047;-72
2022/02/08 15:23:24;;;;;;;19.65;8.25;;;;;;;3.38;71.18;98983.22;5062360;28;20045;-73
2022/02/08 15:25:53;;;;;;;19.95;8.32;;;;;;;3.38;71.00;98983.22;5062136;28;20040;-70
2022/02/08 15:28:21;;;;;;;17.80;8.10;;;;;;;3.39;71.09;98963.19;5062642;28;20028;-71
2022/02/08 15:30:47;;;;;;;19.42;8.75;;;;;;;3.40;71.31;98978.41;5065127;28;20286;-71
2022/02/08 15:33:12;;;;;;;21.38;8.32;;;;;;;3.40;72.11;98959.41;5061447;28;20112;-73
2022/02/08 15:35:38;;;;;;;18.10;8.18;;;;;;;3.40;71.51;98970.25;5061653;28;20017;-73
2022/02/08 15:38:05;;;;;;;20.17;8.93;;;;;;;3.40;71.83;98964.84;5061894;28;20016;-72
2022/02/08 15:40:32;;;;;;;20.30;8.93;;;;;;;3.40;71.36;98956.72;5062443;28;20497;-72
2022/02/08 15:42:58;;;;;;;21.88;8.95;;;;;;;3.37;71.83;98966.13;5063269;28;20040;-73
2022/02/08 15:45:29;;;;;;;22.15;8.18;;;;;;;3.36;72.40;98963.66;5057723;28;20032;-72
2022/02/08 15:47:58;;;;;;;18.02;8.20;;;;;;;3.35;72.43;98960.09;5058906;28;20036;-71
2022/02/08 15:50:46;;;;;;;17.17;7.40;;;;;;;3.36;71.90;98971.78;5061060;28;20043;-70
2022/02/08 15:58:27;;;;;;;28.52;12.45;;;;;;;3.39;71.43;98960.47;5062517;28;20052;-72
2022/02/08 16:08:55;;;;;;;25.33;10.60;;;;;;;3.37;72.98;98957.19;5062285;28;20148;-72
2022/02/08 16:16:51;;;;;;;23.60;10.07;;;;;;;3.25;74.23;98971.56;5060624;28;20052;-72
2022/02/08 16:24:37;;;;;;;17.35;8.63;;;;;;;3.11;75.71;98987.22;5060329;28;20470;-72
2022/02/08 16:56:59;;;;;;;35.85;16.75;;;;;;;2.79;79.83;98971.28;5062774;28;20043;-72
2022/02/08 16:59:35;;;;;;;66.43;22.88;;;;;;;2.77;80.04;98973.41;5066244;28;20029;-72
2022/02/08 17:02:04;;;;;;;23.42;11.57;;;;;;;2.75;80.07;98974.66;5066190;28;20052;-71
2022/02/08 17:04:29;;;;;;;28.73;12.77;;;;;;;2.74;80.87;98971.16;5063623;28;20519;-72
2022/02/08 17:06:55;;;;;;;21.45;9.93;;;;;;;2.71;80.70;98982.44;5066837;28;20028;-71
2022/02/08 17:10:09;;;;;;;54.10;18.80;;;;;;;2.68;81.68;98977.47;5066381;28;20690;-71
2022/02/08 17:12:33;;;;;;;33.78;13.93;;;;;;;2.65;81.03;98984.16;5065633;28;20060;-72
2022/02/08 17:18:03;;;;;;;21.00;9.77;;;;;;;2.61;82.45;98963.22;5067689;28;20055;-70
2022/02/08 17:38:19;;;;;;;20.23;10.90;;;;;;;2.53;84.04;98969.78;5066986;28;20422;-72
2022/02/08 17:45:42;;;;;;;27.17;12.05;;;;;;;2.55;85.03;98977.69;5062268;28;20039;-70
2022/02/08 17:48:05;;;;;;;34.67;14.65;;;;;;;2.53;85.53;98964.38;5066433;28;20029;-70
2022/02/08 17:50:31;;;;;;;32.42;15.30;;;;;;;2.53;85.37;98976.03;5065643;28;20501;-70
2022/02/08 17:52:56;;;;;;;28.27;13.77;;;;;;;2.55;84.99;98972.25;5066228;28;20038;-70
2022/02/08 17:55:23;;;;;;;29.55;15.63;;;;;;;2.58;85.75;98979.91;5062824;28;20035;-70
2022/02/08 17:57:49;;;;;;;44.63;21.20;;;;;;;2.59;85.63;98978.88;5065260;28;20516;-70
2022/02/08 18:00:16;;;;;;;35.28;18.17;;;;;;;2.57;86.02;98971.00;5066393;28;20033;-70
2022/02/08 18:02:44;;;;;;;49.65;22.90;;;;;;;2.57;86.14;98972.84;5067160;28;20052;-70
2022/02/08 18:05:11;;;;;;;35.40;16.23;;;;;;;2.56;85.80;98977.47;5064444;28;20039;-71
2022/02/08 18:07:37;;;;;;;35.60;16.60;;;;;;;2.56;86.02;98980.16;5066606;28;20024;-70
2022/02/08 18:10:04;;;;;;;37.08;15.77;;;;;;;2.58;85.71;98974.50;5066135;28;20033;-69
2022/02/08 18:12:29;;;;;;;27.25;14.20;;;;;;;2.57;85.78;98976.41;5066314;28;20045;-71
2022/02/08 18:14:59;;;;;;;29.15;14.43;;;;;;;2.58;86.31;98975.34;5064125;28;20033;-71
2022/02/08 18:17:38;;;;;;;28.13;14.90;;;;;;;2.60;86.05;98969.69;5066939;28;20032;-70
2022/02/08 18:22:48;;;;;;;30.88;15.93;;;;;;;2.64;85.67;98979.00;5065758;28;20657;-70
2022/02/08 18:26:19;;;;;;;29.52;14.98;;;;;;;2.66;85.88;98985.81;5062837;28;20087;-70
2022/02/08 18:50:29;;;;;;;40.42;18.08;;;;;;;2.69;85.49;98976.44;5065598;28;20055;-70
2022/02/08 18:56:44;;;;;;;37.28;18.83;;;;;;;2.82;86.87;99003.31;5063594;28;20087;-70
2022/02/08 19:12:15;;;;;;;30.13;14.57;;;;;;;2.95;86.13;99012.28;5066418;28;20067;-68
2022/02/08 19:20:04;;;;;;;34.13;16.10;;;;;;;3.02;86.87;99007.59;5064670;28;20055;-69
2022/02/08 19:22:29;;;;;;;31.25;13.65;;;;;;;3.07;86.41;99001.47;5065236;28;20141;-69
2022/02/08 19:24:55;;;;;;;36.65;16.95;;;;;;;3.08;85.96;98995.81;5062631;28;20033;-69
2022/02/08 19:27:20;;;;;;;35.15;15.98;;;;;;;3.10;86.34;98991.00;5065147;28;20624;-69
2022/02/08 19:30:06;;;;;;;34.83;15.50;;;;;;;3.13;85.81;99006.78;5061065;28;20055;-71
2022/02/08 19:32:32;;;;;;;36.92;16.17;;;;;;;3.16;86.08;99007.38;5064189;28;20066;-72
2022/02/08 19:34:57;;;;;;;34.70;15.75;;;;;;;3.19;86.30;99012.34;5059014;28;20027;-73
2022/02/08 19:37:24;;;;;;;44.22;17.60;;;;;;;3.20;85.78;99017.50;5064972;28;20044;-72
2022/02/08 19:39:49;;;;;;;41.10;16.23;;;;;;;3.25;85.60;99008.69;5063446;28;20119;-72
2022/02/08 19:42:15;;;;;;;38.97;17.73;;;;;;;3.29;86.53;99023.41;5064766;28;20103;-72
2022/02/08 19:44:41;;;;;;;38.53;16.10;;;;;;;3.33;86.15;99015.66;5060746;28;20048;-71
2022/02/08 19:47:08;;;;;;;39.50;16.23;;;;;;;3.37;86.64;99019.53;5064770;28;20232;-71
2022/02/08 19:49:34;;;;;;;36.47;16.55;;;;;;;3.38;86.12;99023.91;5064024;28;20052;-72